createdAt,value
2022-10-09T00:01:23.815Z,4.56
2022-10-09T00:03:53.485Z,4.56
2022-10-09T00:06:25.186Z,4.94
2022-10-09T00:08:52.301Z,4.75
2022-10-09T00:11:23.819Z,4.18
2022-10-09T00:13:52.939Z,4.94
2022-10-09T00:16:22.801Z,5.51
2022-10-09T00:18:50.832Z,5.51
2022-10-09T00:21:24.919Z,4.18
2022-10-09T00:23:54.901Z,3.80
2022-10-09T00:26:23.021Z,4.18
2022-10-09T00:28:51.014Z,3.99
2022-10-09T00:31:18.456Z,3.99
2022-10-09T00:33:46.052Z,3.80
2022-10-09T00:36:17.465Z,3.61
2022-10-09T00:38:44.596Z,3.61
2022-10-09T00:41:35.907Z,3.23
2022-10-09T00:44:42.766Z,3.23
2022-10-09T00:47:22.284Z,3.61
2022-10-09T00:49:54.526Z,3.80
2022-10-09T00:52:24.009Z,3.42
2022-10-09T00:54:53.678Z,3.23
2022-10-09T00:57:20.815Z,3.23
2022-10-09T00:59:47.541Z,3.61
2022-10-09T01:02:14.494Z,3.04
2022-10-09T01:04:41.430Z,3.23
2022-10-09T01:07:48.850Z,3.04
2022-10-09T01:10:59.323Z,3.04
2022-10-09T01:13:38.045Z,3.04
2022-10-09T01:16:33.330Z,3.42
2022-10-09T01:19:22.547Z,3.42
2022-10-09T01:22:16.525Z,3.42
2022-10-09T01:24:53.343Z,3.04
2022-10-09T01:27:25.570Z,3.80
2022-10-09T01:30:08.816Z,3.80
2022-10-09T01:32:43.212Z,3.23
2022-10-09T01:35:14.181Z,3.42
2022-10-09T01:37:45.704Z,3.99
2022-10-09T01:40:16.996Z,2.85
2022-10-09T01:42:47.329Z,3.04
2022-10-09T01:45:15.959Z,2.66
2022-10-09T01:47:43.461Z,2.28
2022-10-09T01:50:27.406Z,3.04
2022-10-09T01:53:01.958Z,2.66
2022-10-09T01:55:56.815Z,3.04
2022-10-09T01:58:41.885Z,2.85
2022-10-09T02:01:16.939Z,2.85
2022-10-09T02:03:49.941Z,3.42
2022-10-09T02:06:19.902Z,2.85
2022-10-09T02:08:51.237Z,2.66
2022-10-09T02:11:18.505Z,3.23
2022-10-09T02:13:49.749Z,2.66
2022-10-09T02:16:42.098Z,3.04
2022-10-09T02:19:37.625Z,2.85
2022-10-09T02:22:18.309Z,2.85
2022-10-09T02:24:46.382Z,2.66
2022-10-09T02:27:14.805Z,2.47
2022-10-09T02:29:44.797Z,3.04
2022-10-09T02:32:13.614Z,2.47
2022-10-09T02:34:40.583Z,3.04
2022-10-09T02:37:08.398Z,3.42
2022-10-09T02:39:35.520Z,2.85
2022-10-09T02:42:03.286Z,2.66
2022-10-09T02:44:30.021Z,3.23
2022-10-09T02:46:56.686Z,3.04
2022-10-09T02:49:24.118Z,3.04
2022-10-09T02:51:50.757Z,2.47
2022-10-09T02:54:17.968Z,2.66
2022-10-09T02:56:44.877Z,3.23
2022-10-09T02:59:11.550Z,3.80
2022-10-09T03:01:38.358Z,3.04
2022-10-09T03:04:05.358Z,3.23
2022-10-09T03:06:32.829Z,3.42
2022-10-09T03:08:59.510Z,3.04
2022-10-09T03:11:26.449Z,3.42
2022-10-09T03:13:54.466Z,3.23
2022-10-09T03:16:24.667Z,3.42
2022-10-09T03:18:53.522Z,2.85
2022-10-09T03:21:24.177Z,2.66
2022-10-09T03:23:51.856Z,3.99
2022-10-09T03:26:25.240Z,3.04
2022-10-09T03:28:54.307Z,3.80
2022-10-09T03:34:12.597Z,3.04
2022-10-09T03:36:39.738Z,3.42
2022-10-09T03:39:06.452Z,3.04
2022-10-09T03:41:33.071Z,2.66
2022-10-09T03:43:59.725Z,2.66
2022-10-09T03:46:26.519Z,3.42
2022-10-09T03:48:53.285Z,2.66
2022-10-09T03:51:19.933Z,3.04
2022-10-09T03:53:46.584Z,3.42
2022-10-09T03:56:13.207Z,2.66
2022-10-09T03:58:40.067Z,2.28
2022-10-09T04:01:06.768Z,2.85
2022-10-09T04:03:33.587Z,2.66
2022-10-09T04:06:00.289Z,2.85
2022-10-09T04:08:27.656Z,2.85
2022-10-09T04:11:01.328Z,2.85
2022-10-09T04:13:28.217Z,2.66
2022-10-09T04:15:56.109Z,2.66
2022-10-09T04:18:23.609Z,3.04
2022-10-09T04:20:56.589Z,2.47
2022-10-09T04:23:27.705Z,2.85
2022-10-09T04:25:56.742Z,3.23
2022-10-09T04:28:23.912Z,3.04
2022-10-09T04:30:52.403Z,2.85
2022-10-09T04:33:19.457Z,2.66
2022-10-09T04:35:50.905Z,4.18
2022-10-09T04:38:18.068Z,3.23
2022-10-09T04:40:44.730Z,2.47
2022-10-09T04:43:11.500Z,2.66
2022-10-09T04:45:41.362Z,3.04
2022-10-09T04:48:08.050Z,3.23
2022-10-09T04:50:34.662Z,3.04
2022-10-09T04:53:01.316Z,2.85
2022-10-09T04:55:27.982Z,2.85
2022-10-09T04:57:54.582Z,3.04
2022-10-09T05:00:21.312Z,3.23
2022-10-09T05:02:48.340Z,2.85
2022-10-09T05:05:15.307Z,2.66
2022-10-09T05:07:41.927Z,3.04
2022-10-09T05:10:08.872Z,3.61
2022-10-09T05:12:35.511Z,3.61
2022-10-09T05:15:02.122Z,3.23
2022-10-09T05:17:28.810Z,3.04
2022-10-09T05:19:55.499Z,3.42
2022-10-09T05:22:22.144Z,3.23
2022-10-09T05:24:48.804Z,2.66
2022-10-09T05:27:15.459Z,2.66
2022-10-09T05:29:42.075Z,3.42
2022-10-09T05:32:08.876Z,3.04
2022-10-09T05:34:35.539Z,3.23
2022-10-09T05:37:02.243Z,2.85
2022-10-09T05:39:29.021Z,2.66
2022-10-09T05:41:55.787Z,3.42
2022-10-09T05:44:22.829Z,3.04
2022-10-09T05:46:49.679Z,3.23
2022-10-09T05:49:16.408Z,3.04
2022-10-09T05:51:43.041Z,3.04
2022-10-09T05:54:15.623Z,2.47
2022-10-09T05:56:43.278Z,2.47
2022-10-09T05:59:21.891Z,3.23
2022-10-09T06:01:51.668Z,3.23
2022-10-09T06:04:24.796Z,2.85
2022-10-09T06:06:51.921Z,3.42
2022-10-09T06:09:23.146Z,2.66
2022-10-09T06:11:50.999Z,3.42
2022-10-09T06:14:18.598Z,3.04
2022-10-09T06:16:45.942Z,2.66
2022-10-09T06:19:16.313Z,2.85
2022-10-09T06:21:44.179Z,2.66
2022-10-09T06:24:27.862Z,3.04
2022-10-09T06:26:56.768Z,3.04
2022-10-09T06:29:23.533Z,3.23
2022-10-09T06:31:50.262Z,3.42
2022-10-09T06:34:17.258Z,2.66
2022-10-09T06:36:43.898Z,3.23
2022-10-09T06:39:11.495Z,3.04
2022-10-09T06:41:38.215Z,2.66
2022-10-09T06:44:15.312Z,3.42
2022-10-09T06:46:45.585Z,3.42
2022-10-09T06:49:12.599Z,3.42
2022-10-09T06:51:39.628Z,4.18
2022-10-09T06:54:13.247Z,5.32
2022-10-09T06:56:40.488Z,5.13
2022-10-09T06:59:08.624Z,5.13
2022-10-09T07:01:35.873Z,4.94
2022-10-09T07:04:09.397Z,4.75
2022-10-09T07:06:43.083Z,5.32
2022-10-09T07:09:13.490Z,4.94
2022-10-09T07:11:49.172Z,5.32
2022-10-09T07:14:17.535Z,4.37
2022-10-09T07:16:48.336Z,4.94
2022-10-09T07:19:17.887Z,4.56
2022-10-09T07:21:48.475Z,5.51
2022-10-09T07:24:17.475Z,4.75
2022-10-09T07:26:46.574Z,4.37
2022-10-09T07:29:16.995Z,5.51
2022-10-09T07:31:44.514Z,5.13
2022-10-09T07:34:11.872Z,5.32
2022-10-09T07:36:38.581Z,4.94
2022-10-09T07:39:06.294Z,4.37
2022-10-09T07:41:33.905Z,3.99
2022-10-09T07:44:01.054Z,4.75
2022-10-09T07:46:33.394Z,4.94
2022-10-09T07:49:02.242Z,4.56
2022-10-09T07:51:30.433Z,4.56
2022-10-09T07:53:58.150Z,5.32
2022-10-09T07:56:30.245Z,4.56
2022-10-09T07:59:03.818Z,5.13
2022-10-09T08:01:33.586Z,4.18
2022-10-09T08:04:01.727Z,5.13
2022-10-09T08:06:29.259Z,4.37
2022-10-09T08:08:59.300Z,5.13
2022-10-09T08:11:28.735Z,4.94
2022-10-09T08:13:56.467Z,4.56
2022-10-09T08:16:25.109Z,5.13
2022-10-09T08:19:00.392Z,4.75
2022-10-09T08:21:32.943Z,4.75
2022-10-09T08:24:01.213Z,4.56
2022-10-09T08:26:30.810Z,4.94
2022-10-09T08:29:03.753Z,5.13
2022-10-09T08:31:32.285Z,5.89
2022-10-09T08:34:01.992Z,5.51
2022-10-09T08:36:29.968Z,4.56
2022-10-09T08:38:57.098Z,4.56
2022-10-09T08:41:32.875Z,5.13
2022-10-09T08:44:11.538Z,4.18
2022-10-09T08:47:09.023Z,4.75
2022-10-09T08:50:09.073Z,4.75
2022-10-09T08:52:49.702Z,5.32
2022-10-09T08:55:29.147Z,5.13
2022-10-09T08:58:03.182Z,4.94
2022-10-09T09:00:53.488Z,4.56
2022-10-09T09:03:54.041Z,4.75
2022-10-09T09:07:01.795Z,4.37
2022-10-09T09:10:00.061Z,3.80
2022-10-09T09:12:53.559Z,5.32
2022-10-09T09:15:50.958Z,3.23
2022-10-09T09:18:43.116Z,4.37
2022-10-09T09:21:57.749Z,3.99
2022-10-09T09:24:53.867Z,4.94
2022-10-09T09:27:34.291Z,4.18
2022-10-09T09:30:18.384Z,4.56
2022-10-09T09:33:25.394Z,4.37
2022-10-09T09:36:10.849Z,3.99
2022-10-09T09:38:53.725Z,3.80
2022-10-09T09:41:25.148Z,4.18
2022-10-09T09:43:51.965Z,5.32
2022-10-09T09:46:25.560Z,3.42
2022-10-09T09:48:53.725Z,4.18
2022-10-09T09:51:29.118Z,4.94
2022-10-09T09:54:05.961Z,4.18
2022-10-09T09:57:11.189Z,4.56
2022-10-09T09:59:48.346Z,3.80
2022-10-09T10:02:26.906Z,4.18
2022-10-09T10:05:14.655Z,3.61
2022-10-09T10:07:41.485Z,3.61
2022-10-09T10:10:22.464Z,3.80
2022-10-09T10:13:00.527Z,3.61
2022-10-09T10:15:33.874Z,3.61
2022-10-09T10:18:15.238Z,3.80
2022-10-09T10:21:17.501Z,3.61
2022-10-09T10:24:05.428Z,2.66
2022-10-09T10:26:46.691Z,3.04
2022-10-09T10:29:42.444Z,3.23
2022-10-09T10:32:20.115Z,2.85
2022-10-09T10:35:25.561Z,3.42
2022-10-09T10:38:18.436Z,2.66
2022-10-09T10:40:54.238Z,3.04
2022-10-09T10:43:33.428Z,3.42
2022-10-09T10:46:26.938Z,2.66
2022-10-09T10:48:54.266Z,3.04
2022-10-09T10:51:45.510Z,2.66
2022-10-09T10:54:49.568Z,2.85
2022-10-09T10:57:51.641Z,3.04
2022-10-09T11:00:18.898Z,2.47
2022-10-09T11:03:34.744Z,2.85
2022-10-09T11:06:14.987Z,3.23
2022-10-09T11:09:06.125Z,2.47
2022-10-09T11:11:55.936Z,2.28
2022-10-09T11:14:38.155Z,3.42
2022-10-09T11:17:28.124Z,2.85
2022-10-09T11:20:14.635Z,2.47
2022-10-09T11:23:05.843Z,2.66
2022-10-09T11:26:26.164Z,2.66
2022-10-09T11:29:02.582Z,2.28
2022-10-09T11:31:54.243Z,2.85
2022-10-09T11:35:04.709Z,2.47
2022-10-09T11:37:39.174Z,2.09
2022-10-09T11:40:33.983Z,2.85
2022-10-09T11:43:25.571Z,2.66
2022-10-09T11:46:33.397Z,2.66
2022-10-09T11:49:25.242Z,1.90
2022-10-09T11:52:15.246Z,3.23
2022-10-09T11:54:42.282Z,2.47
2022-10-09T11:57:14.293Z,2.28
2022-10-09T11:59:42.633Z,2.66
2022-10-09T12:02:30.696Z,2.28
2022-10-09T12:04:57.701Z,2.47
2022-10-09T12:10:35.091Z,1.90
2022-10-09T12:13:07.243Z,2.47
2022-10-09T12:15:59.115Z,2.09
2022-10-09T12:18:32.056Z,2.47
2022-10-09T12:21:04.616Z,2.28
2022-10-09T12:23:37.374Z,2.66
2022-10-09T12:26:05.750Z,2.47
2022-10-09T12:28:56.698Z,2.66
2022-10-09T12:31:38.662Z,2.85
2022-10-09T12:34:31.238Z,2.28
2022-10-09T12:37:20.851Z,2.09
2022-10-09T12:39:49.670Z,2.47
2022-10-09T12:42:24.870Z,2.28
2022-10-09T12:44:55.562Z,2.28
2022-10-09T12:47:30.051Z,3.04
2022-10-09T12:50:12.227Z,2.09
2022-10-09T12:52:54.258Z,2.85
2022-10-09T12:55:36.650Z,2.47
2022-10-09T12:58:33.019Z,2.28
2022-10-09T13:01:05.461Z,2.09
2022-10-09T13:03:40.889Z,2.47
2022-10-09T13:06:19.762Z,2.47
2022-10-09T13:08:57.765Z,2.47
2022-10-09T13:11:43.533Z,2.47
2022-10-09T13:14:45.532Z,2.09
2022-10-09T13:17:37.506Z,1.90
2022-10-09T13:20:16.669Z,2.47
2022-10-09T13:22:56.408Z,2.28
2022-10-09T13:25:34.186Z,1.90
2022-10-09T13:28:03.290Z,2.09
2022-10-09T13:30:30.331Z,2.09
2022-10-09T13:32:57.695Z,2.47
2022-10-09T13:35:25.006Z,3.23
2022-10-09T13:37:52.312Z,2.47
2022-10-09T13:40:21.954Z,2.09
2022-10-09T13:43:00.486Z,2.66
2022-10-09T13:45:27.679Z,1.90
2022-10-09T13:47:54.438Z,1.90
2022-10-09T13:50:21.523Z,2.28
2022-10-09T13:52:48.620Z,2.47
2022-10-09T13:55:15.775Z,1.90
2022-10-09T13:57:42.562Z,2.09
2022-10-09T14:00:10.487Z,2.85
2022-10-09T14:02:37.222Z,2.09
2022-10-09T14:05:04.276Z,1.90
2022-10-09T14:09:50.004Z,2.28
2022-10-09T14:12:17.212Z,2.47
2022-10-09T14:14:44.060Z,2.66
2022-10-09T14:17:10.818Z,2.09
2022-10-09T14:19:37.689Z,2.28
2022-10-09T14:22:04.381Z,2.47
2022-10-09T14:24:31.664Z,2.85
2022-10-09T14:26:58.300Z,2.28
2022-10-09T14:29:24.916Z,2.47
2022-10-09T14:31:51.967Z,2.09
2022-10-09T14:34:18.851Z,2.28
2022-10-09T14:36:45.550Z,2.28
2022-10-09T14:39:12.196Z,2.09
2022-10-09T14:41:38.849Z,2.85
2022-10-09T14:44:07.122Z,3.04
2022-10-09T14:46:34.984Z,3.04
2022-10-09T14:49:07.414Z,2.66
2022-10-09T14:51:37.341Z,3.42
2022-10-09T14:54:05.864Z,2.66
2022-10-09T14:56:33.227Z,2.28
2022-10-09T14:59:01.100Z,3.04
2022-10-09T15:01:32.021Z,3.04
2022-10-09T15:04:04.575Z,3.23
2022-10-09T15:06:33.248Z,3.42
2022-10-09T15:09:04.669Z,2.85
2022-10-09T15:11:34.740Z,2.85
2022-10-09T15:14:02.692Z,2.66
2022-10-09T15:16:29.474Z,3.23
2022-10-09T15:18:57.038Z,3.04
2022-10-09T15:21:28.557Z,2.47
2022-10-09T15:23:58.442Z,2.85
2022-10-09T15:26:28.951Z,3.80
2022-10-09T15:28:56.234Z,5.70
2022-10-09T15:31:35.906Z,5.89
2022-10-09T15:34:04.458Z,7.03
2022-10-09T15:36:35.967Z,6.08
2022-10-09T15:39:08.802Z,6.46
2022-10-09T15:41:39.614Z,5.89
2022-10-09T15:44:16.474Z,5.13
2022-10-09T15:46:44.516Z,4.18
2022-10-09T15:49:11.923Z,3.99
2022-10-09T15:51:39.282Z,4.75
2022-10-09T15:54:06.859Z,3.61
2022-10-09T15:56:37.436Z,4.18
2022-10-09T15:59:06.347Z,3.99
2022-10-09T16:01:33.087Z,3.61
2022-10-09T16:03:59.757Z,3.99
2022-10-09T16:06:26.465Z,3.80
2022-10-09T16:08:58.453Z,3.04
2022-10-09T16:11:26.757Z,3.99
2022-10-09T16:13:55.779Z,4.18
2022-10-09T16:16:27.497Z,4.75
2022-10-09T16:18:56.709Z,3.80
2022-10-09T16:21:27.743Z,5.32
2022-10-09T16:23:58.807Z,4.37
2022-10-09T16:26:29.462Z,4.75
2022-10-09T16:28:56.640Z,5.51
2022-10-09T16:31:31.026Z,4.75
2022-10-09T16:33:59.009Z,5.70
2022-10-09T16:36:26.132Z,5.89
2022-10-09T16:38:52.916Z,5.32
2022-10-09T16:41:23.009Z,5.13
2022-10-09T16:43:54.076Z,5.70
2022-10-09T16:49:06.081Z,4.56
2022-10-09T16:51:35.790Z,4.94
2022-10-09T16:54:05.376Z,5.51
2022-10-09T16:56:39.042Z,4.94
2022-10-09T16:59:12.413Z,4.75
2022-10-09T17:01:44.997Z,4.75
2022-10-09T17:04:13.089Z,4.75
2022-10-09T17:06:46.685Z,6.08
2022-10-09T17:09:14.639Z,6.27
2022-10-09T17:11:42.590Z,6.08
2022-10-09T17:14:09.441Z,6.65
2022-10-09T17:16:39.451Z,6.84
2022-10-09T17:19:06.952Z,7.41
2022-10-09T17:21:34.906Z,7.22
2022-10-09T17:24:05.809Z,7.60
2022-10-09T17:26:32.696Z,7.22
2022-10-09T17:29:01.076Z,7.60
2022-10-09T17:31:29.007Z,7.79
2022-10-09T17:34:00.300Z,7.41
2022-10-09T17:36:31.365Z,8.93
2022-10-09T17:38:58.770Z,8.17
2022-10-09T17:41:27.358Z,7.79
2022-10-09T17:43:56.794Z,8.17
2022-10-09T17:46:25.857Z,9.12
2022-10-09T17:48:53.567Z,7.79
2022-10-09T17:51:36.923Z,7.60
2022-10-09T17:54:11.803Z,8.36
2022-10-09T17:56:40.120Z,7.60
2022-10-09T17:59:07.826Z,7.60
2022-10-09T18:01:35.066Z,7.60
2022-10-09T18:04:02.203Z,7.60
2022-10-09T18:06:33.361Z,7.79
2022-10-09T18:09:00.992Z,7.79
2022-10-09T18:11:28.586Z,8.55
2022-10-09T18:13:56.250Z,8.74
2022-10-09T18:16:35.823Z,7.98
2022-10-09T18:19:07.830Z,8.36
2022-10-09T18:21:35.637Z,9.50
2022-10-09T18:24:02.768Z,8.55
2022-10-09T18:26:29.538Z,8.17
2022-10-09T18:28:57.760Z,8.36
2022-10-09T18:31:24.661Z,8.36
2022-10-09T18:33:52.358Z,8.17
2022-10-09T18:36:25.573Z,7.41
2022-10-09T18:38:58.488Z,7.22
2022-10-09T18:41:25.159Z,7.79
2022-10-09T18:43:53.468Z,7.60
2022-10-09T18:46:25.969Z,8.17
2022-10-09T18:48:56.316Z,8.74
2022-10-09T18:51:26.691Z,7.79
2022-10-09T18:54:00.874Z,9.88
2022-10-09T18:56:32.184Z,8.36
2022-10-09T18:59:03.585Z,10.64
2022-10-09T19:01:30.463Z,9.12
2022-10-09T19:03:57.142Z,9.88
2022-10-09T19:06:23.891Z,9.50
2022-10-09T19:08:52.067Z,10.07
2022-10-09T19:11:18.722Z,9.88
2022-10-09T19:13:45.857Z,9.50
2022-10-09T19:16:12.522Z,8.93
2022-10-09T19:18:39.632Z,8.36
2022-10-09T19:21:07.045Z,9.12
2022-10-09T19:23:33.847Z,9.88
2022-10-09T19:26:00.629Z,9.50
2022-10-09T19:28:37.547Z,9.50
2022-10-09T19:31:06.564Z,9.31
2022-10-09T19:33:34.139Z,9.12
2022-10-09T19:36:01.070Z,8.74
2022-10-09T19:38:28.550Z,8.93
2022-10-09T19:40:55.534Z,8.36
2022-10-09T19:43:24.280Z,7.98
2022-10-09T19:46:12.030Z,8.17
2022-10-09T19:48:38.896Z,7.60
2022-10-09T19:51:08.945Z,8.55
2022-10-09T19:53:36.323Z,7.60
2022-10-09T19:56:09.590Z,8.36
2022-10-09T19:58:40.887Z,7.79
2022-10-09T20:01:09.258Z,8.17
2022-10-09T20:03:35.970Z,8.93
2022-10-09T20:06:04.264Z,8.36
2022-10-09T20:08:31.251Z,7.98
2022-10-09T20:11:03.064Z,7.98
2022-10-09T20:13:36.646Z,7.60
2022-10-09T20:16:08.283Z,8.36
2022-10-09T20:18:35.403Z,8.36
2022-10-09T20:21:02.024Z,8.55
2022-10-09T20:23:28.666Z,9.12
2022-10-09T20:26:08.536Z,7.98
2022-10-09T20:28:37.948Z,7.98
2022-10-09T20:31:08.059Z,8.17
2022-10-09T20:33:37.782Z,9.12
2022-10-09T20:36:06.152Z,8.55
2022-10-09T20:38:33.283Z,8.55
2022-10-09T20:41:08.580Z,7.03
2022-10-09T20:43:36.786Z,6.46
2022-10-09T20:46:13.289Z,7.03
2022-10-09T20:48:42.660Z,6.65
2022-10-09T20:51:09.950Z,6.84
2022-10-09T20:53:37.008Z,7.22
2022-10-09T20:56:08.241Z,6.65
2022-10-09T20:58:36.604Z,6.65
2022-10-09T21:01:06.588Z,7.22
2022-10-09T21:03:36.516Z,7.22
2022-10-09T21:06:06.608Z,7.22
2022-10-09T21:08:34.147Z,6.84
2022-10-09T21:11:03.911Z,7.22
2022-10-09T21:13:30.584Z,7.03
2022-10-09T21:15:57.293Z,6.08
2022-10-09T21:18:24.150Z,6.46
2022-10-09T21:20:50.878Z,5.89
2022-10-09T21:23:19.050Z,6.84
2022-10-09T21:25:53.567Z,6.08
2022-10-09T21:28:21.823Z,5.51
2022-10-09T21:30:49.183Z,5.32
2022-10-09T21:33:17.184Z,4.94
2022-10-09T21:35:50.767Z,4.18
2022-10-09T21:38:21.271Z,5.13
2022-10-09T21:40:51.901Z,4.18
2022-10-09T21:43:18.966Z,4.75
2022-10-09T21:45:50.360Z,4.75
2022-10-09T21:48:18.081Z,4.56
2022-10-09T21:50:45.181Z,4.56
2022-10-09T21:53:12.345Z,4.18
2022-10-09T21:55:39.411Z,4.56
2022-10-09T21:58:07.363Z,4.75
2022-10-09T22:00:34.921Z,4.56
2022-10-09T22:03:01.751Z,4.94
2022-10-09T22:05:28.458Z,4.37
2022-10-09T22:07:55.063Z,4.94
2022-10-09T22:10:22.281Z,3.99
2022-10-09T22:12:49.430Z,4.75
2022-10-09T22:15:16.379Z,4.94
2022-10-09T22:17:43.096Z,4.18
2022-10-09T22:20:10.381Z,4.18
2022-10-09T22:22:37.417Z,4.75
2022-10-09T22:25:04.933Z,3.99
2022-10-09T22:27:31.655Z,3.99
2022-10-09T22:29:58.279Z,3.80
2022-10-09T22:32:25.503Z,3.99
2022-10-09T22:34:52.385Z,3.61
2022-10-09T22:37:19.359Z,3.99
2022-10-09T22:39:46.336Z,4.75
2022-10-09T22:42:14.544Z,4.37
2022-10-09T22:44:41.342Z,4.37
2022-10-09T22:47:08.241Z,5.13
2022-10-09T22:49:34.944Z,4.37
2022-10-09T22:52:01.852Z,3.80
2022-10-09T22:54:28.649Z,3.80
2022-10-09T22:56:55.426Z,4.18
2022-10-09T22:59:22.285Z,3.42
2022-10-09T23:01:54.150Z,4.37
2022-10-09T23:04:22.926Z,4.75
2022-10-09T23:06:54.148Z,3.80
2022-10-09T23:09:23.396Z,4.37
2022-10-09T23:11:50.905Z,3.61
2022-10-09T23:14:18.479Z,3.80
2022-10-09T23:16:45.158Z,4.75
2022-10-09T23:19:11.868Z,3.99
2022-10-09T23:21:42.122Z,4.18
2022-10-09T23:24:15.175Z,3.99
2022-10-09T23:26:41.795Z,4.18
2022-10-09T23:29:16.804Z,4.37
2022-10-09T23:31:43.991Z,3.80
2022-10-09T23:34:11.618Z,3.61
2022-10-09T23:36:38.535Z,3.99
2022-10-09T23:39:06.791Z,3.99
2022-10-09T23:41:33.847Z,3.99
2022-10-09T23:44:01.291Z,4.94
2022-10-09T23:46:34.662Z,4.56
2022-10-09T23:49:02.239Z,3.80
2022-10-09T23:51:29.251Z,4.37
2022-10-09T23:53:57.473Z,3.99
2022-10-09T23:56:29.025Z,4.37
2022-10-09T23:58:57.804Z,4.56
